createdAt,value
2022-08-17T00:01:52.664Z,100991.03
2022-08-17T00:04:23.518Z,100998.28
2022-08-17T00:06:53.301Z,100996.44
2022-08-17T00:09:21.256Z,100994.72
2022-08-17T00:12:40.944Z,100992.03
2022-08-17T00:14:38.417Z,100992.03
2022-08-17T00:17:06.509Z,100985.75
2022-08-17T00:19:35.838Z,100977.66
2022-08-17T00:22:31.783Z,100976.81
2022-08-17T00:24:54.964Z,100972.28
2022-08-17T00:27:22.884Z,100968.59
2022-08-17T00:29:51.171Z,100965.13
2022-08-17T00:33:14.005Z,100963.31
2022-08-17T00:35:11.274Z,100962.44
2022-08-17T00:37:39.337Z,100957.03
2022-08-17T00:40:08.613Z,100958.88
2022-08-17T00:42:36.949Z,100958.88
2022-08-17T00:45:08.715Z,100957.03
2022-08-17T00:47:36.748Z,100955.22
2022-08-17T00:50:05.640Z,100953.63
2022-08-17T00:52:39.828Z,100949.94
2022-08-17T00:55:09.730Z,100951.78
2022-08-17T00:57:41.909Z,100954.34
2022-08-17T01:00:15.665Z,100952.63
2022-08-17T01:02:46.485Z,100952.63
2022-08-17T01:05:18.958Z,100948.09
2022-08-17T01:07:50.882Z,100945.53
2022-08-17T01:10:59.497Z,100952.63
2022-08-17T01:13:11.688Z,100946.38
2022-08-17T01:15:46.192Z,100940.97
2022-08-17T01:18:15.988Z,100938.28
2022-08-17T01:20:49.075Z,100938.28
2022-08-17T01:23:21.353Z,100934.72
2022-08-17T01:25:50.875Z,100940.28
2022-08-17T01:28:52.568Z,100930.31
2022-08-17T01:31:09.179Z,100926.78
2022-08-17T01:33:37.982Z,100925.88
2022-08-17T01:36:07.157Z,100933.88
2022-08-17T01:38:37.008Z,100939.38
2022-08-17T01:41:09.532Z,100931.28
2022-08-17T01:43:43.163Z,100920.50
2022-08-17T01:46:16.810Z,100925.78
2022-08-17T01:48:47.473Z,100924.19
2022-08-17T01:51:16.702Z,100920.50
2022-08-17T01:53:49.416Z,100921.50
2022-08-17T01:56:22.224Z,100917.78
2022-08-17T01:58:50.465Z,100916.09
2022-08-17T02:01:20.694Z,100917.09
2022-08-17T02:03:56.097Z,100914.38
2022-08-17T02:06:29.064Z,100918.78
2022-08-17T02:09:02.978Z,100918.78
2022-08-17T02:11:33.473Z,100920.63
2022-08-17T02:14:04.086Z,100916.09
2022-08-17T02:16:36.856Z,100919.78
2022-08-17T02:19:07.610Z,100915.22
2022-08-17T02:21:35.924Z,100919.78
2022-08-17T02:24:06.496Z,100918.94
2022-08-17T02:26:34.682Z,100922.47
2022-08-17T02:29:04.100Z,100923.34
2022-08-17T02:31:32.943Z,100926.16
2022-08-17T02:34:03.591Z,100914.38
2022-08-17T02:36:32.380Z,100911.69
2022-08-17T02:39:01.722Z,100911.69
2022-08-17T02:41:31.243Z,100909.00
2022-08-17T02:43:59.279Z,100906.28
2022-08-17T02:46:27.407Z,100905.28
2022-08-17T02:48:55.734Z,100904.44
2022-08-17T02:51:23.771Z,100908.13
2022-08-17T02:53:51.732Z,100914.38
2022-08-17T02:56:19.634Z,100916.09
2022-08-17T02:58:49.199Z,100915.22
2022-08-17T03:01:17.495Z,100910.69
2022-08-17T03:03:45.493Z,100920.50
2022-08-17T03:06:13.454Z,100912.28
2022-08-17T03:08:41.396Z,100917.53
2022-08-17T03:11:09.401Z,100910.31
2022-08-17T03:13:37.398Z,100902.34
2022-08-17T03:16:07.296Z,100894.38
2022-08-17T03:18:35.289Z,100896.94
2022-08-17T03:21:04.614Z,100898.06
2022-08-17T03:23:33.739Z,100901.59
2022-08-17T03:26:02.182Z,100894.50
2022-08-17T03:28:30.275Z,100899.91
2022-08-17T03:30:58.468Z,100909.84
2022-08-17T03:33:27.842Z,100908.00
2022-08-17T03:35:55.842Z,100906.28
2022-08-17T03:38:24.238Z,100892.78
2022-08-17T03:40:56.997Z,100897.34
2022-08-17T03:43:29.323Z,100899.19
2022-08-17T03:46:27.866Z,100900.03
2022-08-17T03:49:17.228Z,100910.84
2022-08-17T03:52:02.491Z,100904.59
2022-08-17T03:54:47.660Z,100904.59
2022-08-17T03:57:16.354Z,100895.59
2022-08-17T03:59:44.924Z,100895.75
2022-08-17T04:02:18.684Z,100897.44
2022-08-17T04:04:50.756Z,100897.44
2022-08-17T04:07:19.180Z,100897.44
2022-08-17T04:09:47.188Z,100892.06
2022-08-17T04:12:16.468Z,100897.44
2022-08-17T04:14:52.255Z,100894.75
2022-08-17T04:17:24.270Z,100895.75
2022-08-17T04:19:54.222Z,100895.75
2022-08-17T04:22:30.712Z,100890.34
2022-08-17T04:25:06.601Z,100893.03
2022-08-17T04:27:34.645Z,100894.03
2022-08-17T04:30:02.935Z,100889.50
2022-08-17T04:33:00.852Z,100889.50
2022-08-17T04:35:22.966Z,100898.44
2022-08-17T04:37:51.062Z,100901.13
2022-08-17T04:40:38.550Z,100907.53
2022-08-17T04:43:10.974Z,100901.13
2022-08-17T04:45:55.373Z,100905.69
2022-08-17T04:48:34.807Z,100900.28
2022-08-17T04:51:10.434Z,100902.13
2022-08-17T04:53:40.083Z,100902.13
2022-08-17T04:56:16.226Z,100900.69
2022-08-17T04:58:48.524Z,100900.19
2022-08-17T05:01:23.562Z,100904.09
2022-08-17T05:03:52.347Z,100898.47
2022-08-17T05:06:21.835Z,100899.94
2022-08-17T05:08:49.999Z,100901.19
2022-08-17T05:11:18.009Z,100902.41
2022-08-17T05:13:45.954Z,100911.75
2022-08-17T05:16:13.913Z,100910.28
2022-08-17T05:18:41.816Z,100911.50
2022-08-17T05:21:10.049Z,100910.91
2022-08-17T05:23:42.616Z,100910.56
2022-08-17T05:26:25.444Z,100915.22
2022-08-17T05:28:55.473Z,100919.97
2022-08-17T05:31:25.853Z,100928.22
2022-08-17T05:33:54.373Z,100933.84
2022-08-17T05:36:37.844Z,100931.28
2022-08-17T05:39:16.414Z,100934.22
2022-08-17T05:41:47.039Z,100935.31
2022-08-17T05:44:15.058Z,100936.28
2022-08-17T05:46:48.629Z,100932.84
2022-08-17T05:49:20.167Z,100921.53
2022-08-17T05:52:10.211Z,100925.09
2022-08-17T05:54:58.529Z,100937.84
2022-08-17T05:57:53.608Z,100946.78
2022-08-17T06:00:29.987Z,100957.56
2022-08-17T06:03:21.215Z,100974.72
2022-08-17T06:06:09.655Z,100984.75
2022-08-17T06:08:51.505Z,100967.59
2022-08-17T06:11:30.780Z,100956.94
2022-08-17T06:14:17.410Z,100962.47
2022-08-17T06:16:50.208Z,100964.19
2022-08-17T06:19:23.644Z,100952.66
2022-08-17T06:21:54.702Z,100960.63
2022-08-17T06:24:35.272Z,100951.19
2022-08-17T06:27:13.670Z,100962.63
2022-08-17T06:29:49.157Z,100963.25
2022-08-17T06:32:17.486Z,100952.22
2022-08-17T06:34:47.085Z,100966.41
2022-08-17T06:37:28.901Z,100956.25
2022-08-17T06:40:05.961Z,100964.09
2022-08-17T06:42:54.861Z,100964.81
2022-08-17T06:45:37.853Z,100963.72
2022-08-17T06:48:12.449Z,100964.34
2022-08-17T06:50:45.003Z,100957.00
2022-08-17T06:53:20.921Z,100963.13
2022-08-17T06:55:58.235Z,100964.72
2022-08-17T06:58:31.285Z,100970.75
2022-08-17T07:01:05.208Z,100969.75
2022-08-17T07:03:38.026Z,100970.47
2022-08-17T07:06:09.653Z,100967.66
2022-08-17T07:08:50.475Z,100952.34
2022-08-17T07:11:21.834Z,100960.28
2022-08-17T07:14:00.141Z,100957.50
2022-08-17T07:16:35.104Z,100970.84
2022-08-17T07:19:04.297Z,100974.28
2022-08-17T07:21:42.356Z,100963.50
2022-08-17T07:24:26.143Z,100965.19
2022-08-17T07:27:16.224Z,100974.91
2022-08-17T07:29:53.636Z,100978.44
2022-08-17T07:32:26.695Z,100979.16
2022-08-17T07:35:15.270Z,100988.97
2022-08-17T07:37:49.124Z,100987.16
2022-08-17T07:40:23.937Z,100984.31
2022-08-17T07:43:09.273Z,100985.06
2022-08-17T07:46:16.521Z,100986.78
2022-08-17T07:48:49.630Z,100987.63
2022-08-17T07:51:29.711Z,100991.19
2022-08-17T07:54:13.476Z,100994.72
2022-08-17T07:56:46.068Z,100993.75
2022-08-17T07:59:18.102Z,100992.78
2022-08-17T08:02:08.059Z,100990.09
2022-08-17T08:07:38.455Z,100990.94
2022-08-17T08:10:11.148Z,100993.50
2022-08-17T08:12:41.613Z,100995.19
2022-08-17T08:15:17.820Z,100992.50
2022-08-17T08:17:53.104Z,100999.75
2022-08-17T08:20:52.120Z,100991.53
2022-08-17T08:23:33.610Z,101003.06
2022-08-17T08:26:18.630Z,100999.50
2022-08-17T08:28:54.598Z,100996.81
2022-08-17T08:31:31.536Z,100998.50
2022-08-17T08:34:53.227Z,101002.94
2022-08-17T08:37:18.037Z,100996.59
2022-08-17T08:40:03.536Z,101007.25
2022-08-17T08:42:43.309Z,101004.56
2022-08-17T08:45:18.010Z,101005.41
2022-08-17T08:48:05.888Z,101012.53
2022-08-17T08:50:49.188Z,101019.66
2022-08-17T08:53:28.651Z,101027.75
2022-08-17T08:56:03.917Z,101037.53
2022-08-17T08:58:42.005Z,101040.25
2022-08-17T09:01:18.573Z,101048.34
2022-08-17T09:04:24.034Z,101047.38
2022-08-17T09:07:09.775Z,101038.28
2022-08-17T09:09:50.590Z,101027.50
2022-08-17T09:12:26.921Z,101028.34
2022-08-17T09:15:02.541Z,101022.97
2022-08-17T09:17:39.395Z,101019.28
2022-08-17T09:20:28.075Z,101015.56
2022-08-17T09:23:03.662Z,101006.63
2022-08-17T09:25:36.236Z,101006.63
2022-08-17T09:28:08.112Z,101004.78
2022-08-17T09:30:42.292Z,101000.28
2022-08-17T09:33:12.821Z,100995.72
2022-08-17T09:35:46.559Z,100986.78
2022-08-17T09:38:28.125Z,100980.41
2022-08-17T09:41:08.366Z,100984.09
2022-08-17T09:43:59.684Z,100979.41
2022-08-17T09:46:37.478Z,100977.69
2022-08-17T09:49:11.607Z,100975.84
2022-08-17T09:51:43.815Z,100976.69
2022-08-17T09:54:40.742Z,100983.81
2022-08-17T09:57:32.360Z,100979.25
2022-08-17T10:00:23.781Z,100973.00
2022-08-17T10:03:16.269Z,100987.34
2022-08-17T10:05:51.325Z,100988.25
2022-08-17T10:08:37.356Z,100990.06
2022-08-17T10:11:20.181Z,100996.34
2022-08-17T10:13:54.671Z,101002.59
2022-08-17T10:16:37.354Z,100996.34
2022-08-17T10:19:14.743Z,100995.34
2022-08-17T10:22:32.730Z,101006.13
2022-08-17T10:25:21.650Z,101007.00
2022-08-17T10:27:58.640Z,101010.53
2022-08-17T10:30:29.536Z,101021.34
2022-08-17T10:33:00.909Z,101010.53
2022-08-17T10:35:37.770Z,101018.66
2022-08-17T10:38:38.136Z,101021.34
2022-08-17T10:41:20.711Z,101025.75
2022-08-17T10:44:37.031Z,101034.84
2022-08-17T10:47:07.407Z,101054.59
2022-08-17T10:49:36.618Z,101064.53
2022-08-17T10:52:30.497Z,101070.78
2022-08-17T10:55:13.871Z,101074.34
2022-08-17T10:57:45.925Z,101070.78
2022-08-17T11:00:31.549Z,101059.97
2022-08-17T11:03:01.151Z,101066.22
2022-08-17T11:05:54.067Z,101069.94
2022-08-17T11:08:39.293Z,101062.69
2022-08-17T11:11:25.869Z,101068.94
2022-08-17T11:14:08.918Z,101069.06
2022-08-17T11:16:49.776Z,101074.47
2022-08-17T11:19:41.953Z,101068.22
2022-08-17T11:22:44.220Z,101084.28
2022-08-17T11:25:16.961Z,101079.00
2022-08-17T11:27:49.138Z,101079.88
2022-08-17T11:30:48.673Z,101079.88
2022-08-17T11:33:52.834Z,101079.88
2022-08-17T11:36:38.554Z,101086.25
2022-08-17T11:39:32.228Z,101078.16
2022-08-17T11:42:06.544Z,101069.22
2022-08-17T11:44:52.327Z,101071.91
2022-08-17T11:48:02.482Z,101071.03
2022-08-17T11:51:06.183Z,101090.81
2022-08-17T11:54:30.553Z,101097.06
2022-08-17T11:56:50.288Z,101092.59
2022-08-17T11:59:55.331Z,101101.59
2022-08-17T12:02:35.791Z,101101.59
2022-08-17T12:05:27.455Z,101091.75
2022-08-17T12:08:07.191Z,101086.34
2022-08-17T12:10:41.101Z,101078.25
2022-08-17T12:13:16.852Z,101079.13
2022-08-17T12:15:49.693Z,101087.22
2022-08-17T12:18:23.294Z,101080.00
2022-08-17T12:21:08.349Z,101083.66
2022-08-17T12:23:44.281Z,101095.31
2022-08-17T12:26:22.091Z,101101.59
2022-08-17T12:28:52.844Z,101098.91
2022-08-17T12:31:24.283Z,101109.69
2022-08-17T12:33:53.061Z,101105.25
2022-08-17T12:36:25.790Z,101107.94
2022-08-17T12:38:59.512Z,101112.50
2022-08-17T12:41:47.171Z,101107.22
2022-08-17T12:44:18.244Z,101113.47
2022-08-17T12:46:50.491Z,101112.72
2022-08-17T12:49:25.259Z,101109.06
2022-08-17T12:52:03.101Z,101118.75
2022-08-17T12:54:39.555Z,101118.75
2022-08-17T12:57:15.918Z,101119.59
2022-08-17T12:59:48.492Z,101117.66
2022-08-17T13:02:28.361Z,101126.59
2022-08-17T13:04:58.258Z,101114.34
2022-08-17T13:07:32.706Z,101104.75
2022-08-17T13:10:00.853Z,101116.03
2022-08-17T13:12:33.128Z,101110.41
2022-08-17T13:15:01.680Z,101109.03
2022-08-17T13:17:34.703Z,101108.78
2022-08-17T13:20:05.981Z,101112.94
2022-08-17T13:22:34.107Z,101117.50
2022-08-17T13:25:07.390Z,101120.94
2022-08-17T13:27:38.332Z,101113.56
2022-08-17T13:30:12.784Z,101116.00
2022-08-17T13:32:45.015Z,101099.66
2022-08-17T13:35:40.358Z,101102.25
2022-08-17T13:38:12.387Z,101095.63
2022-08-17T13:40:53.250Z,101089.22
2022-08-17T13:43:45.615Z,101095.38
2022-08-17T13:46:26.584Z,101086.16
2022-08-17T13:49:00.825Z,101088.03
2022-08-17T13:51:33.596Z,101079.91
2022-08-17T13:54:20.113Z,101072.81
2022-08-17T13:56:55.545Z,101070.09
2022-08-17T13:59:53.106Z,101071.69
2022-08-17T14:02:27.513Z,101062.59
2022-08-17T14:04:58.451Z,101061.63
2022-08-17T14:07:35.793Z,101058.06
2022-08-17T14:10:08.718Z,101067.88
2022-08-17T14:12:40.833Z,101072.56
2022-08-17T14:15:12.879Z,101067.88
2022-08-17T14:17:40.778Z,101054.38
2022-08-17T14:20:11.797Z,101054.13
2022-08-17T14:22:43.811Z,101048.72
2022-08-17T14:25:12.826Z,101049.41
2022-08-17T14:27:51.763Z,101045.88
2022-08-17T14:30:25.482Z,101044.16
2022-08-17T14:32:55.098Z,101055.81
2022-08-17T14:35:25.031Z,101054.81
2022-08-17T14:37:53.902Z,101046.47
2022-08-17T14:40:24.826Z,101044.75
2022-08-17T14:42:55.249Z,101050.03
2022-08-17T14:45:29.894Z,101058.13
2022-08-17T14:48:04.178Z,101051.16
2022-08-17T14:50:35.421Z,101055.44
2022-08-17T14:53:05.194Z,101050.28
2022-08-17T14:55:33.568Z,101045.00
2022-08-17T14:58:01.481Z,101050.28
2022-08-17T15:00:31.448Z,101047.31
2022-08-17T15:03:01.320Z,101044.50
2022-08-17T15:05:31.887Z,101044.75
2022-08-17T15:08:00.970Z,101049.16
2022-08-17T15:10:29.484Z,101042.16
2022-08-17T15:12:58.075Z,101041.31
2022-08-17T15:15:26.541Z,101035.19
2022-08-17T15:17:56.099Z,101036.91
2022-08-17T15:20:28.615Z,101048.56
2022-08-17T15:22:58.950Z,101045.75
2022-08-17T15:25:29.324Z,101047.72
2022-08-17T15:27:58.170Z,101046.13
2022-08-17T15:30:27.087Z,101044.88
2022-08-17T15:32:57.966Z,101046.72
2022-08-17T15:35:29.442Z,101042.31
2022-08-17T15:38:03.511Z,101039.63
2022-08-17T15:40:36.577Z,101036.19
2022-08-17T15:43:06.949Z,101038.91
2022-08-17T15:45:35.355Z,101040.84
2022-08-17T15:48:05.177Z,101039.88
2022-08-17T15:50:33.218Z,101044.31
2022-08-17T15:53:03.514Z,101038.91
2022-08-17T15:55:32.801Z,101046.72
2022-08-17T15:58:01.678Z,101042.44
2022-08-17T16:00:30.462Z,101044.75
2022-08-17T16:03:44.224Z,101046.47
2022-08-17T16:05:52.081Z,101043.78
2022-08-17T16:08:21.359Z,101043.16
2022-08-17T16:10:49.899Z,101041.31
2022-08-17T16:13:18.705Z,101039.34
2022-08-17T16:15:56.754Z,101041.22
2022-08-17T16:18:31.073Z,101040.97
2022-08-17T16:21:19.674Z,101047.81
2022-08-17T16:23:49.163Z,101050.97
2022-08-17T16:26:18.061Z,101049.88
2022-08-17T16:28:46.106Z,101048.63
2022-08-17T16:31:14.363Z,101059.03
2022-08-17T16:34:15.674Z,101054.34
2022-08-17T16:36:32.709Z,101054.94
2022-08-17T16:39:01.463Z,101060.94
2022-08-17T16:41:44.984Z,101059.09
2022-08-17T16:44:15.202Z,101057.97
2022-08-17T16:46:45.653Z,101059.09
2022-08-17T16:49:35.168Z,101062.78
2022-08-17T16:52:07.492Z,101069.44
2022-08-17T16:54:38.039Z,101067.84
2022-08-17T16:57:06.402Z,101064.56
2022-08-17T16:59:41.978Z,101054.88
2022-08-17T17:02:14.297Z,101057.09
2022-08-17T17:04:51.768Z,101057.47
2022-08-17T17:07:41.661Z,101056.03
2022-08-17T17:10:13.448Z,101057.03
2022-08-17T17:13:00.910Z,101055.31
2022-08-17T17:15:41.494Z,101066.22
2022-08-17T17:18:14.770Z,101078.03
2022-08-17T17:20:50.684Z,101080.88
2022-08-17T17:23:33.337Z,101080.00
2022-08-17T17:26:11.052Z,101086.28
2022-08-17T17:28:48.952Z,101082.84
2022-08-17T17:31:19.382Z,101087.25
2022-08-17T17:33:50.874Z,101088.00
2022-08-17T17:36:27.205Z,101090.69
2022-08-17T17:39:00.859Z,101077.91
2022-08-17T17:41:35.414Z,101084.53
2022-08-17T17:44:08.445Z,101083.81
2022-08-17T17:46:40.909Z,101090.22
2022-08-17T17:49:10.594Z,101102.75
2022-08-17T17:52:07.657Z,101094.50
2022-08-17T17:54:50.843Z,101097.19
2022-08-17T17:57:27.216Z,101098.34
2022-08-17T18:00:04.766Z,101092.78
2022-08-17T18:02:51.319Z,101101.13
2022-08-17T18:05:40.478Z,101103.22
2022-08-17T18:08:32.113Z,101111.47
2022-08-17T18:11:07.844Z,101112.34
2022-08-17T18:13:53.499Z,101109.50
2022-08-17T18:16:22.621Z,101112.09
2022-08-17T18:18:52.690Z,101117.50
2022-08-17T18:21:22.879Z,101112.34
2022-08-17T18:23:56.829Z,101113.06
2022-08-17T18:26:45.465Z,101109.63
2022-08-17T18:29:31.302Z,101113.31
2022-08-17T18:32:28.140Z,101109.84
2022-08-17T18:34:59.579Z,101104.44
2022-08-17T18:37:35.398Z,101108.28
2022-08-17T18:40:27.130Z,101112.69
2022-08-17T18:43:09.524Z,101111.84
2022-08-17T18:45:42.128Z,101111.09
2022-08-17T18:48:22.056Z,101111.94
2022-08-17T18:50:52.238Z,101109.38
2022-08-17T18:53:33.422Z,101118.47
2022-08-17T18:56:27.267Z,101113.94
2022-08-17T18:59:05.596Z,101123.13
2022-08-17T19:02:00.817Z,101120.41
2022-08-17T19:04:36.771Z,101134.06
2022-08-17T19:07:11.821Z,101138.63
2022-08-17T19:09:47.022Z,101147.56
2022-08-17T19:12:27.544Z,101157.50
2022-08-17T19:14:57.928Z,101162.03
2022-08-17T19:17:35.421Z,101172.97
2022-08-17T19:20:11.673Z,101166.84
2022-08-17T19:22:54.529Z,101167.81
2022-08-17T19:25:30.351Z,101175.19
2022-08-17T19:28:05.204Z,101178.84
2022-08-17T19:30:51.145Z,101175.19
2022-08-17T19:33:19.472Z,101178.84
2022-08-17T19:36:06.346Z,101166.34
2022-08-17T19:38:54.104Z,101181.22
2022-08-17T19:41:28.212Z,101177.28
2022-08-17T19:44:15.448Z,101171.13
2022-08-17T19:46:55.986Z,101170.53
2022-08-17T19:49:41.130Z,101167.09
2022-08-17T19:52:24.151Z,101167.22
2022-08-17T19:54:58.939Z,101183.44
2022-08-17T19:57:38.135Z,101180.81
2022-08-17T20:00:12.662Z,101179.13
2022-08-17T20:02:50.511Z,101183.66
2022-08-17T20:05:22.603Z,101181.06
2022-08-17T20:07:53.864Z,101185.59
2022-08-17T20:10:36.504Z,101179.50
2022-08-17T20:13:09.533Z,101175.81
2022-08-17T20:15:42.349Z,101180.34
2022-08-17T20:18:19.011Z,101191.28
2022-08-17T20:20:55.908Z,101196.69
2022-08-17T20:23:34.750Z,101205.72
2022-08-17T20:26:13.815Z,101211.13
2022-08-17T20:29:37.485Z,101205.88
2022-08-17T20:32:23.536Z,101199.59
2022-08-17T20:35:04.296Z,101198.75
2022-08-17T20:37:44.810Z,101191.63
2022-08-17T20:40:21.243Z,101185.25
2022-08-17T20:42:49.612Z,101177.25
2022-08-17T20:45:51.708Z,101170.03
2022-08-17T20:48:37.946Z,101165.63
2022-08-17T20:51:27.270Z,101171.00
2022-08-17T20:54:35.614Z,101172.84
2022-08-17T20:57:06.755Z,101174.69
2022-08-17T20:59:59.756Z,101176.53
2022-08-17T21:02:29.647Z,101173.00
2022-08-17T21:05:30.808Z,101180.09
2022-08-17T21:08:02.301Z,101180.09
2022-08-17T21:10:38.779Z,101168.31
2022-08-17T21:13:40.301Z,101163.91
2022-08-17T21:16:25.701Z,101157.50
2022-08-17T21:19:08.638Z,101149.56
2022-08-17T21:21:47.919Z,101157.66
2022-08-17T21:24:27.299Z,101168.44
2022-08-17T21:27:03.606Z,101167.69
2022-08-17T21:29:34.063Z,101173.00
2022-08-17T21:32:19.063Z,101164.91
2022-08-17T21:35:24.331Z,101167.59
2022-08-17T21:37:58.519Z,101164.13
2022-08-17T21:40:29.414Z,101177.63
2022-08-17T21:43:01.312Z,101180.34
2022-08-17T21:45:35.084Z,101194.81
2022-08-17T21:48:15.108Z,101194.81
2022-08-17T21:50:47.511Z,101194.81
2022-08-17T21:53:33.055Z,101193.09
2022-08-17T21:56:01.942Z,101190.28
2022-08-17T21:58:33.459Z,101188.56
2022-08-17T22:01:19.298Z,101191.25
2022-08-17T22:03:54.490Z,101189.50
2022-08-17T22:06:26.549Z,101190.41
2022-08-17T22:09:07.436Z,101199.34
2022-08-17T22:11:53.285Z,101209.28
2022-08-17T22:14:23.225Z,101210.25
2022-08-17T22:17:07.324Z,101220.09
2022-08-17T22:19:36.873Z,101203.00
2022-08-17T22:22:06.792Z,101197.59
2022-08-17T22:24:36.795Z,101194.06
2022-08-17T22:27:09.252Z,101200.44
2022-08-17T22:29:57.434Z,101209.41
2022-08-17T22:32:42.030Z,101211.25
2022-08-17T22:35:26.306Z,101206.69
2022-08-17T22:37:54.291Z,101219.34
2022-08-17T22:40:29.032Z,101221.19
2022-08-17T22:42:58.266Z,101226.56
2022-08-17T22:45:26.746Z,101225.72
2022-08-17T22:47:56.836Z,101228.41
2022-08-17T22:50:27.899Z,101223.03
2022-08-17T22:53:18.324Z,101223.03
2022-08-17T22:56:11.011Z,101225.72
2022-08-17T22:59:02.182Z,101216.78
2022-08-17T23:01:32.487Z,101209.53
2022-08-17T23:04:03.073Z,101211.38
2022-08-17T23:06:33.858Z,101214.94
2022-08-17T23:09:03.886Z,101216.78
2022-08-17T23:11:46.205Z,101211.47
2022-08-17T23:14:19.843Z,101211.38
2022-08-17T23:16:48.722Z,101206.94
2022-08-17T23:19:18.623Z,101213.19
2022-08-17T23:21:46.942Z,101213.19
2022-08-17T23:24:19.468Z,101212.31
2022-08-17T23:26:48.852Z,101212.31
2022-08-17T23:29:16.952Z,101210.47
2022-08-17T23:31:44.983Z,101211.38
2022-08-17T23:34:18.319Z,101212.31
2022-08-17T23:36:52.604Z,101204.22
2022-08-17T23:39:27.575Z,101207.78
2022-08-17T23:41:58.376Z,101207.78
2022-08-17T23:44:27.346Z,101213.19
2022-08-17T23:46:55.775Z,101211.47
2022-08-17T23:49:24.372Z,101219.56
2022-08-17T23:51:53.643Z,101219.56
2022-08-17T23:54:24.247Z,101225.81
2022-08-17T23:56:52.870Z,101232.06
2022-08-17T23:59:23.660Z,101233.06
